Flight Track Log - Related Links

Times and Time Zones

All times are in EDT time to prevent confusion due to time zone crossing. See the N559LC flight status page for this flight to view local times or setup timezone preferences in your user account.

Time Position Orientation Groundspeed Altitude Reporting Facility
EDT Latitude Longitude Course Direction KTS MPH feet Rate Location/Type
Thu 01:09:02 PM 26.5319 -80.0564 339° North 273 314 6,900  Level Miami Center
Thu 01:10:02 PM 26.5447 -80.1428 279° West 225 259 9,900 1,700 Climbing Miami Center
Thu 01:11:02 PM 26.5550 -80.2428 277° West 273 314 10,300 1,200 Climbing Miami Center
Thu 01:12:00 PM 27.0140 -80.2171 329° Northwest  Level Estimated
Thu 01:12:02 PM 26.5967 -80.3392 296° West 312 359 12,300  Level Miami Center
Thu 01:13:00 PM 27.1199 -80.2355 339° North  Level Estimated
Thu 01:13:02 PM 26.6872 -80.3931 332° Northwest 328 377 14,200  Level Miami Center
Thu 01:14:02 PM 26.7861 -80.4425 336° Northwest 345 397 17,200 1,900 Climbing Miami Center
Thu 01:15:02 PM 26.8625 -80.4800 336° Northwest 358 412 18,000 1,400 Climbing Miami Center
Thu 01:16:02 PM 26.9739 -80.5392 335° Northwest 379 436 20,000 1,850 Climbing Miami Center
Thu 01:17:02 PM 27.0747 -80.5914 335° Northwest 391 450 21,700 1,500 Climbing Miami Center
Thu 01:18:02 PM 27.1819 -80.6439 336° Northwest 401 461 23,000 1,350 Climbing Miami Center
Thu 01:19:02 PM 27.2892 -80.6989 335° Northwest 413 475 24,400 1,450 Climbing Miami Center
Thu 01:20:02 PM 27.4003 -80.7539 336° Northwest 424 488 25,900 1,400 Climbing Miami Center
Thu 01:21:02 PM 27.5158 -80.8069 338° Northwest 432 497 27,200 1,350 Climbing Miami Center
Thu 01:22:02 PM 27.6292 -80.8603 337° Northwest 437 503 28,600 1,400 Climbing Miami Center
Thu 01:23:02 PM 27.7514 -80.8925 347° North 443 510 30,000 1,900 Climbing Miami Center
Thu 01:24:02 PM 27.8656 -80.9178 349° North 431 496 32,400 1,950 Climbing Miami Center
Thu 01:25:02 PM 27.9836 -80.9456 348° North 424 488 33,900 1,400 Climbing Miami Center
Thu 01:26:02 PM 28.0978 -80.9731 348° North 424 488 35,200 1,400 Climbing Miami Center
Thu 01:27:02 PM 28.2139 -80.9986 349° North 424 488 36,700 1,650 Climbing Miami Center
Thu 01:28:02 PM 28.3278 -81.0264 348° North 424 488 38,500 1,150 Climbing Miami Center
Thu 01:29:02 PM 28.4397 -81.0517 349° North 424 488 39,000 204 Climbing Miami Center
Thu 01:30:29 PM 28.6028 -81.0931 347° North 420 483 39,000  Level Jacksonville Center
Thu 01:31:29 PM 28.7200 -81.1194 349° North 425 489 39,000  Level Jacksonville Center
Thu 01:32:29 PM 28.8350 -81.1481 348° North 425 489 39,000  Level Jacksonville Center
Thu 01:33:29 PM 28.9503 -81.1747 349° North 425 489 39,000  Level Jacksonville Center
Thu 01:34:29 PM 29.0653 -81.2011 349° North 420 483 39,000  Level Jacksonville Center
Thu 01:35:29 PM 29.1764 -81.2372 344° North 415 478 39,000  Level Jacksonville Center
Thu 01:36:29 PM 29.2733 -81.3119 326° Northwest 402 463 39,000  Level Jacksonville Center
Thu 01:37:29 PM 29.3725 -81.3842 328° Northwest 414 476 39,000 100 Level Jacksonville Center
Thu 01:38:29 PM 29.4736 -81.4683 324° Northwest 414 476 39,200 500 Climbing Jacksonville Center
Thu 01:39:29 PM 29.5725 -81.5386 328° Northwest 414 476 40,000 800 Climbing Jacksonville Center
Thu 01:40:29 PM 29.6692 -81.6042 329° Northwest 414 476 40,800 500 Climbing Jacksonville Center
Thu 01:41:29 PM 29.7822 -81.6386 345° North 401 461 41,000 100 Climbing Jacksonville Center
Thu 01:42:29 PM 29.8931 -81.6539 353° North 401 461 41,000  Level Jacksonville Center
Thu 01:43:29 PM 30.0058 -81.6669 354° North 401 461 41,000  Level Jacksonville Center
Thu 01:44:29 PM 30.1189 -81.6800 354° North 406 467 41,000  Level Jacksonville Center
Thu 01:45:29 PM 30.2317 -81.6906 355° North 406 467 41,000  Level Jacksonville Center
Thu 01:46:29 PM 30.3486 -81.7083 353° North 406 467 41,000  Level Jacksonville Center
Thu 01:47:29 PM 30.4489 -81.7192 355° North 406 467 41,000  Level Jacksonville Center
Thu 01:48:29 PM 30.5703 -81.7369 353° North 412 474 41,000  Level Jacksonville Center
Thu 01:49:29 PM 30.6853 -81.7547 352° North 418 481 41,000  Level Jacksonville Center
Thu 01:50:29 PM 30.8003 -81.7703 353° North 418 481 41,000  Level Jacksonville Center
Thu 01:51:29 PM 30.9131 -81.7861 353° North 413 475 41,000  Level Jacksonville Center
Thu 01:52:29 PM 31.0281 -81.8017 353° North 408 470 41,000  Level Jacksonville Center
Thu 01:53:29 PM 31.1453 -81.8172 354° North 408 470 41,000  Level Jacksonville Center
Thu 01:54:29 PM 31.2603 -81.8331 353° North 408 470 41,000  Level Jacksonville Center
Thu 01:55:29 PM 31.3708 -81.8486 353° North 402 463 41,000  Level Jacksonville Center
Thu 01:56:29 PM 31.4964 -81.8644 354° North 407 468 41,000  Level Jacksonville Center
Thu 01:57:29 PM 31.6133 -81.8803 353° North 414 476 41,000  Level Jacksonville Center
Thu 01:58:29 PM 31.7178 -81.8911 355° North 414 476 41,000  Level Jacksonville Center
Thu 01:59:29 PM 31.8433 -81.9094 353° North 414 476 41,000  Level Jacksonville Center
Thu 02:01:57 PM 32.1192 -81.9469 353° North 425 489 41,000  Level Atlanta Center
Thu 02:02:57 PM 32.2342 -81.9614 354° North 419 482 41,000  Level Atlanta Center
Thu 02:03:57 PM 32.3450 -81.9761 354° North 411 473 41,000  Level Atlanta Center
Thu 02:04:57 PM 32.4622 -81.9931 353° North 411 473 41,000  Level Atlanta Center
Thu 02:05:57 PM 32.5939 -82.0097 354° North 421 484 41,000  Level Atlanta Center
Thu 02:06:57 PM 32.7092 -82.0244 354° North 426 490 41,000  Level Atlanta Center
Thu 02:07:57 PM 32.8300 -82.0242 360° North 426 490 41,000  Level Atlanta Center
Thu 02:08:57 PM 32.9511 -82.0239 360° North 426 490 41,000  Level Atlanta Center
Thu 02:09:57 PM 33.0722 -82.0233 360° North 426 490 41,000  Level Atlanta Center
Thu 02:10:57 PM 33.1933 -82.0231 360° North 426 490 41,000  Level Atlanta Center
Thu 02:11:57 PM 33.3122 -82.0228 360° North 421 484 41,000  Level Atlanta Center
Thu 02:12:57 PM 33.4333 -82.0225 360° North 421 484 41,000  Level Atlanta Center
Thu 02:13:57 PM 33.5564 -82.0222 360° North 427 491 41,000  Level Atlanta Center
Thu 02:14:57 PM 33.6794 -82.0217 360° North 432 497 41,000  Level Atlanta Center
Thu 02:15:57 PM 33.8028 -82.0214 360° North 432 497 41,000  Level Atlanta Center
Thu 02:16:57 PM 33.9133 -82.0211 360° North 443 510 41,000  Level Atlanta Center
Thu 02:17:57 PM 34.0344 -82.0233 359° North 438 504 41,000  Level Atlanta Center
Thu 02:18:57 PM 34.1575 -82.0231 360° North 438 504 41,000  Level Atlanta Center
Thu 02:19:57 PM 34.2786 -82.0253 359° North 438 504 41,000  Level Atlanta Center
Thu 02:20:57 PM 34.3997 -82.0247 360° North 438 504 41,000  Level Atlanta Center
Thu 02:21:57 PM 34.5206 -82.0219 North 438 504 41,000  Level Atlanta Center
Thu 02:22:57 PM 34.6439 -82.0239 359° North 438 504 41,000  Level Atlanta Center
Thu 02:23:57 PM 34.7692 -82.0261 359° North 438 504 41,000  Level Atlanta Center
Thu 02:24:57 PM 34.8922 -82.0256 360° North 438 504 41,000  Level Atlanta Center
Thu 02:25:57 PM 35.0111 -82.0253 360° North 438 504 41,000  Level Atlanta Center
Thu 02:26:57 PM 35.1364 -82.0247 360° North 438 504 41,000  Level Atlanta Center
Thu 02:27:57 PM 35.2594 -82.0242 360° North 438 504 41,000  Level Atlanta Center
Thu 02:28:57 PM 35.3825 -82.0289 358° North 438 504 41,000  Level Atlanta Center
Thu 02:29:57 PM 35.5181 -82.0256 North 438 504 41,000  Level Atlanta Center
Thu 02:30:57 PM 35.6392 -82.0253 360° North 438 504 41,000  Level Atlanta Center
Thu 02:31:57 PM 35.7644 -82.0247 360° North 443 510 41,000  Level Atlanta Center
Thu 02:32:57 PM 35.8894 -82.0242 360° North 443 510 41,000  Level Atlanta Center
Thu 02:33:57 PM 36.0106 -82.0236 360° North 443 510 41,000  Level Atlanta Center
Thu 02:34:57 PM 36.1378 -82.0231 360° North 444 511 41,000  Level Atlanta Center
Thu 02:35:57 PM 36.2608 -82.0225 360° North 444 511 41,000  Level Atlanta Center
Thu 02:36:57 PM 36.3881 -82.0244 359° North 444 511 41,000  Level Atlanta Center
Thu 02:38:57 PM 36.6394 -82.0239 360° North 453 521 41,000  Level Indianapolis Center
Thu 02:39:58 PM 36.7650 -82.0236 360° North 452 520 41,000  Level Indianapolis Center
Thu 02:41:00 PM 36.8944 -82.0233 360° North 462 532 41,000  Level Indianapolis Center
Thu 02:42:02 PM 37.0217 -82.0247 360° North 461 531 41,000  Level Indianapolis Center
Thu 02:43:04 PM 37.1481 -82.0250 360° North 455 524 41,000  Level Indianapolis Center
Thu 02:44:06 PM 37.2958 -82.0247 360° North 455 524 41,000  Level Indianapolis Center
Thu 02:45:08 PM 37.4236 -82.0258 360° North 456 525 41,000  Level Indianapolis Center
Thu 02:46:09 PM 37.5503 -82.0253 360° North 456 525 41,000  Level Indianapolis Center
Thu 02:47:11 PM 37.6772 -82.0253 360° North 456 525 41,000  Level Indianapolis Center
Thu 02:48:13 PM 37.8042 -82.0253 360° North 457 526 41,000  Level Indianapolis Center
Thu 02:49:15 PM 37.9339 -82.0261 360° North 456 525 41,000  Level Indianapolis Center
Thu 02:50:17 PM 38.0631 -82.0247 360° North 460 529 41,000  Level Indianapolis Center
Thu 02:51:19 PM 38.1917 -82.0261 360° North 459 528 41,000  Level Indianapolis Center
Thu 02:52:21 PM 38.3458 -82.0258 360° North 460 529 41,000  Level Indianapolis Center
Thu 02:53:23 PM 38.4756 -82.0267 360° North 461 531 41,000  Level Indianapolis Center
Thu 02:54:25 PM 38.6050 -82.0258 360° North 460 529 41,000  Level Indianapolis Center
Thu 02:55:27 PM 38.7356 -82.0275 359° North 462 532 41,000  Level Indianapolis Center
Thu 02:56:29 PM 38.8622 -82.0433 354° North 452 520 41,000 -339 Level Indianapolis Center
Thu 02:57:31 PM 38.9883 -82.0639 353° North 451 519 40,300 -919 Descending Indianapolis Center
Thu 02:58:33 PM 39.1144 -82.0831 353° North 451 519 39,100 -1,258 Descending Indianapolis Center
Thu 02:59:35 PM 39.2417 -82.1036 353° North 457 526 37,700 -1,016 Descending Indianapolis Center
Thu 03:00:37 PM 39.3728 -82.1236 353° North 469 540 37,000 -532 Descending Indianapolis Center
Thu 03:01:39 PM 39.5108 -82.1464 353° North 464 534 36,600 -968 Descending Indianapolis Center
Thu 03:02:41 PM 39.6419 -82.1675 353° North 474 545 35,000 -774 Descending Indianapolis Center
Thu 03:03:43 PM 39.7769 -82.1886 353° North 487 560 35,000 -387 Level Indianapolis Center
Thu 03:04:45 PM 39.9372 -82.2142 353° North 488 562 34,200 -1,403 Descending Indianapolis Center
Thu 03:05:47 PM 40.0739 -82.2361 353° North 496 571 32,100 -1,968 Descending Indianapolis Center
Thu 03:06:50 PM 40.2117 -82.2597 353° North 501 577 30,100 -1,008 Descending Indianapolis Center
Thu 03:07:52 PM 40.3656 -82.2850 353° North 492 566 30,000 -48 Descending Indianapolis Center
Thu 03:08:54 PM 40.5017 -82.3078 353° North 488 562 30,000  Level Indianapolis Center
Thu 03:09:56 PM 40.6336 -82.3461 348° North 481 554 30,000  Level Indianapolis Center
Thu 03:10:58 PM 40.7658 -82.3844 348° North 479 551 30,000  Level Indianapolis Center
Thu 03:12:00 PM 40.8975 -82.4231 348° North 479 551 30,000 -194 Level Indianapolis Center
Thu 03:13:02 PM 41.0319 -82.4628 347° North 485 558 29,600 -1,548 Descending Indianapolis Center
Thu 03:14:04 PM 41.1658 -82.5008 348° North 484 557 26,800 -2,903 Descending Indianapolis Center
Thu 03:15:06 PM 41.2942 -82.5367 348° North 467 537 23,600 -3,145 Descending Indianapolis Center
Thu 03:16:08 PM 41.4158 -82.5717 348° North 446 513 20,300 -2,882 Descending Indianapolis Center
Thu 03:16:48 PM 41.4942 -82.6381 328° Northwest 392 451 18,700 -2,169 Descending Cleveland Center
Thu 03:17:31 PM 41.5367 -82.7161 306° West 363 418 17,300 -1,660 Descending Cleveland Center
Thu 03:17:35 PM 41.5383 -82.7131 54° Northeast 383 441 17,400 -1,700 Climbing Cleveland Center
Thu 03:18:31 PM 41.5953 -82.8297 303° West 366 421 15,600 -1,645 Descending Cleveland Center
Thu 03:18:37 PM 41.5956 -82.8275 81° East 370 426 15,700 -1,881 Climbing Cleveland Center
Thu 03:19:38 PM 41.6594 -82.9553 304° West 354 407 13,500 -1,935 Descending Cleveland Center
Thu 03:19:39 PM 41.6544 -82.9442 121° Southeast 360 414 13,700 -1,377 Climbing Cleveland Center
Thu 03:20:39 PM 41.7206 -83.0586 308° West 354 407 12,100 -1,548 Descending Cleveland Center
Thu 03:20:41 PM 41.7122 -83.0489 139° Southeast 352 405 12,100 -98 Level Cleveland Center
Thu 03:21:40 PM 41.8069 -83.1347 326° Northwest 371 427 12,000 -97 Descending Cleveland Center
Thu 03:21:43 PM 41.7953 -83.1244 147° Southeast 363 418 12,000  Level Cleveland Center
Thu 03:22:41 PM 41.9011 -83.1925 334° Northwest 381 438 12,000  Level Cleveland Center
Thu 03:22:45 PM 41.8878 -83.1869 163° South 371 427 12,000 98 Level Cleveland Center
Thu 03:23:42 PM 41.9983 -83.2367 342° North 356 410 12,100 95 Climbing Cleveland Center
Thu 03:23:48 PM 42.0028 -83.2356 11° North 373 429 12,100  Level Cleveland Center
Thu 03:24:42 PM 42.0819 -83.2400 358° North 279 321 12,100  Level Cleveland Center
Thu 03:24:50 PM 42.0867 -83.2364 30° Northeast 307 353 12,100 -896 Level Cleveland Center
Thu 03:25:49 PM 42.1686 -83.2294 North 285 328 11,100 -968 Descending Cleveland Center
Thu 03:25:52 PM 42.1614 -83.2314 191° South 275 316 11,100 -1,770 Level Cleveland Center
Thu 03:26:50 PM 42.2414 -83.1803 25° Northeast 292 336 9,300 -1,645 Descending Cleveland Center
Thu 03:26:54 PM 42.2333 -83.1850 203° Southwest 294 338 9,400 -1,574 Climbing Cleveland Center
Thu 03:27:51 PM 42.3119 -83.1336 26° Northeast 278 320 7,700 -1,839 Descending Cleveland Center
Thu 03:27:56 PM 42.3161 -83.1281 45° Northeast 283 326 7,500 -1,475 Descending Cleveland Center
Thu 03:28:52 PM 42.3797 -83.0978 19° North 241 277 6,200 -1,452 Descending Cleveland Center
Thu 03:28:58 PM 42.3803 -83.0981 340° North 262 302 6,000 -1,574 Descending Cleveland Center
Thu 03:29:53 PM 42.4067 -83.1553 302° West 157 181 4,600 -1,452 Descending Cleveland Center
Thu 03:30:00 PM 42.4069 -83.1547 56° Northeast 195 224 4,500 -492 Descending Cleveland Center
Thu 03:30:54 PM 42.3858 -83.2089 242° Southwest 148 170 4,100 -581 Descending Cleveland Center
Thu 03:31:02 PM 42.3864 -83.2072 66° East 162 186 3,900 -300 Descending Cleveland Center
Thu 03:31:54 PM 42.3569 -83.2331 213° Southwest 121 139 3,800 -290 Descending Cleveland Center
Thu 03:32:04 PM 42.3564 -83.2314 114° Southeast 131 151 3,600 -689 Descending Cleveland Center
Thu 03:32:55 PM 42.3281 -83.2544 211° Southwest 121 139 3,100 -581 Descending Cleveland Center
Thu 03:33:06 PM 42.3267 -83.2531 144° Southeast 122 140 3,000 -590 Descending Cleveland Center
Thu 03:33:56 PM 42.3014 -83.2733 211° Southwest 106 122 2,500 -667 Descending Cleveland Center
Thu 03:34:09 PM 42.2961 -83.2758 199° South 112 129 2,300 -492 Descending Cleveland Center
Thu 03:34:57 PM 42.2744 -83.2950 213° Southwest 110 127 2,000 -484 Descending Cleveland Center
Thu 03:35:11 PM 42.2692 -83.2961 189° South 110 127 1,800 -590 Descending Cleveland Center
Thu 03:35:58 PM 42.2481 -83.3139 212° Southwest 112 129 1,400 -581 Descending Cleveland Center
Thu 03:36:13 PM 42.2422 -83.3164 198° South 110 127 1,200 -390 Descending Cleveland Center
Thu 03:37:15 PM 42.2147 -83.3361 208° Southwest 112 129 900 -290 Descending Cleveland Center

Login

Don't have an account? Register now (free) for customized features, flight alerts, and more!